createdAt,value
2018-01-14T00:02:08.488Z,101919.13
2018-01-14T00:04:36.811Z,101922.45
2018-01-14T00:07:05.258Z,101913.91
2018-01-14T00:09:33.699Z,101912.43
2018-01-14T00:12:02.098Z,101907.92
2018-01-14T00:14:30.490Z,101913.27
2018-01-14T00:16:58.811Z,101906.58
2018-01-14T00:19:27.199Z,101919.54
2018-01-14T00:21:55.556Z,101909.47
2018-01-14T00:24:23.906Z,101910.81
2018-01-14T00:26:52.291Z,101907.51
2018-01-14T00:29:21.477Z,101901.78
2018-01-14T00:31:50.661Z,101901.18
2018-01-14T00:34:18.996Z,101903.09
2018-01-14T00:36:47.394Z,101901.37
2018-01-14T00:39:15.986Z,101900.48
2018-01-14T00:41:44.312Z,101904.62
2018-01-14T00:44:13.402Z,101897.58
2018-01-14T00:46:42.738Z,101903.41
2018-01-14T00:49:11.060Z,101893.91
2018-01-14T00:51:40.164Z,101895.11
2018-01-14T00:54:08.590Z,101894.96
2018-01-14T00:56:36.980Z,101896.38
2018-01-14T00:59:05.327Z,101892.78
2018-01-14T01:01:34.495Z,101894.53
2018-01-14T01:04:02.939Z,101899.41
2018-01-14T01:06:31.415Z,101900.75
2018-01-14T01:08:59.747Z,101895.20
2018-01-14T01:11:28.990Z,101886.38
2018-01-14T01:13:57.403Z,101888.13
2018-01-14T01:16:25.741Z,101887.30
2018-01-14T01:18:54.159Z,101890.11
2018-01-14T01:21:22.513Z,101897.93
2018-01-14T01:23:50.835Z,101900.30
2018-01-14T01:26:20.013Z,101903.64
2018-01-14T01:28:49.116Z,101901.73
2018-01-14T01:31:18.227Z,101896.58
2018-01-14T01:33:47.322Z,101895.98
2018-01-14T01:36:16.608Z,101892.88
2018-01-14T01:38:45.819Z,101889.84
2018-01-14T01:41:14.976Z,101892.30
2018-01-14T01:43:44.925Z,101884.84
2018-01-14T01:46:14.108Z,101883.09
2018-01-14T01:48:43.211Z,101874.28
2018-01-14T01:51:12.328Z,101877.68
2018-01-14T01:53:40.718Z,101873.89
2018-01-14T01:56:09.055Z,101870.21
2018-01-14T01:58:37.594Z,101877.52
2018-01-14T02:01:05.981Z,101879.47
2018-01-14T02:03:34.379Z,101882.39
2018-01-14T02:06:02.748Z,101878.16
2018-01-14T02:08:31.156Z,101882.84
2018-01-14T02:11:00.267Z,101878.38
2018-01-14T02:13:29.612Z,101881.67
2018-01-14T02:15:58.064Z,101887.05
2018-01-14T02:18:26.470Z,101881.45
2018-01-14T02:20:54.904Z,101885.48
2018-01-14T02:23:23.306Z,101887.52
2018-01-14T02:25:51.635Z,101892.20
2018-01-14T02:28:19.985Z,101895.22
2018-01-14T02:30:48.343Z,101902.58
2018-01-14T02:33:16.729Z,101905.20
2018-01-14T02:35:45.130Z,101910.73
2018-01-14T02:38:13.457Z,101903.25
2018-01-14T02:40:41.877Z,101901.03
2018-01-14T02:43:10.312Z,101904.27
2018-01-14T02:45:38.722Z,101904.03
2018-01-14T02:48:07.075Z,101903.24
2018-01-14T02:50:35.438Z,101902.59
2018-01-14T02:53:04.630Z,101900.35
2018-01-14T02:55:33.732Z,101901.25
2018-01-14T02:58:02.856Z,101903.02
2018-01-14T03:00:31.253Z,101901.12
2018-01-14T03:02:59.679Z,101888.77
2018-01-14T03:05:28.976Z,101889.34
2018-01-14T03:07:57.485Z,101900.05
2018-01-14T03:10:25.883Z,101885.30
2018-01-14T03:12:54.482Z,101883.69
2018-01-14T03:15:22.813Z,101888.23
2018-01-14T03:17:51.919Z,101892.09
2018-01-14T03:20:20.368Z,101878.42
2018-01-14T03:22:48.695Z,101879.00
2018-01-14T03:25:17.047Z,101887.16
2018-01-14T03:27:46.207Z,101887.47
2018-01-14T03:30:14.666Z,101878.01
2018-01-14T03:32:43.026Z,101876.86
2018-01-14T03:35:11.407Z,101872.55
2018-01-14T03:37:39.797Z,101869.98
2018-01-14T03:40:08.139Z,101872.88
2018-01-14T03:42:37.227Z,101871.89
2018-01-14T03:45:06.399Z,101864.83
2018-01-14T03:47:34.750Z,101857.73
2018-01-14T03:50:03.071Z,101856.00
2018-01-14T03:52:32.187Z,101853.11
2018-01-14T03:57:39.630Z,101857.55
2018-01-14T04:00:08.077Z,101857.39
2018-01-14T04:02:36.424Z,101854.95
2018-01-14T04:05:04.847Z,101850.33
2018-01-14T04:07:33.433Z,101847.24
2018-01-14T04:10:01.874Z,101846.50
2018-01-14T04:12:30.983Z,101850.27
2018-01-14T04:14:59.359Z,101850.52
2018-01-14T04:17:27.766Z,101842.86
2018-01-14T04:19:56.192Z,101844.84
2018-01-14T04:22:25.304Z,101843.05
2018-01-14T04:24:54.403Z,101845.96
2018-01-14T04:27:23.513Z,101850.34
2018-01-14T04:29:51.913Z,101850.36
2018-01-14T04:32:20.341Z,101850.29
2018-01-14T04:34:49.472Z,101851.70
2018-01-14T04:37:17.879Z,101853.94
2018-01-14T04:39:46.567Z,101859.11
2018-01-14T04:42:14.974Z,101858.54
2018-01-14T04:44:43.376Z,101857.70
2018-01-14T04:47:12.681Z,101854.73
2018-01-14T04:49:41.091Z,101852.06
2018-01-14T04:52:09.448Z,101849.47
2018-01-14T04:54:37.846Z,101849.38
2018-01-14T04:57:06.263Z,101842.95
2018-01-14T04:59:34.599Z,101842.03
2018-01-14T05:02:03.032Z,101846.78
2018-01-14T05:04:32.201Z,101845.56
2018-01-14T05:07:00.634Z,101847.82
2018-01-14T05:09:29.107Z,101858.95
2018-01-14T05:11:57.456Z,101861.38
2018-01-14T05:14:25.890Z,101868.52
2018-01-14T05:16:54.306Z,101873.61
2018-01-14T05:19:22.807Z,101876.13
2018-01-14T05:21:51.979Z,101884.80
2018-01-14T05:24:20.374Z,101887.11
2018-01-14T05:26:48.827Z,101876.80
2018-01-14T05:29:17.235Z,101877.86
2018-01-14T05:31:45.668Z,101874.81
2018-01-14T05:34:14.150Z,101874.29
2018-01-14T05:36:42.568Z,101876.77
2018-01-14T05:39:10.871Z,101882.03
2018-01-14T05:41:40.168Z,101881.36
2018-01-14T05:44:09.480Z,101887.60
2018-01-14T05:46:38.572Z,101887.95
2018-01-14T05:49:07.662Z,101885.77
2018-01-14T05:51:36.918Z,101885.38
2018-01-14T05:54:05.299Z,101882.02
2018-01-14T05:56:33.627Z,101886.12
2018-01-14T05:59:02.029Z,101888.19
2018-01-14T06:01:30.446Z,101883.89
2018-01-14T06:03:58.845Z,101879.54
2018-01-14T06:06:27.961Z,101876.52
2018-01-14T06:08:56.400Z,101877.73
2018-01-14T06:11:24.890Z,101870.64
2018-01-14T06:13:53.311Z,101864.37
2018-01-14T06:16:22.434Z,101867.04
2018-01-14T06:18:50.768Z,101867.29
2018-01-14T06:21:19.985Z,101862.80
2018-01-14T06:23:48.327Z,101861.21
2018-01-14T06:26:17.468Z,101862.30
2018-01-14T06:28:45.828Z,101868.38
2018-01-14T06:31:14.200Z,101865.62
2018-01-14T06:33:42.650Z,101867.19
2018-01-14T06:36:11.847Z,101861.39
2018-01-14T06:38:40.285Z,101852.70
2018-01-14T06:41:08.722Z,101848.72
2018-01-14T06:43:37.028Z,101856.78
2018-01-14T06:46:05.359Z,101859.45
2018-01-14T06:48:33.810Z,101867.56
2018-01-14T06:51:02.273Z,101863.39
2018-01-14T06:53:30.591Z,101866.47
2018-01-14T06:55:59.810Z,101857.98
2018-01-14T06:58:28.974Z,101856.03
2018-01-14T07:00:57.388Z,101857.90
2018-01-14T07:03:26.500Z,101856.97
2018-01-14T07:05:54.923Z,101855.47
2018-01-14T07:08:23.360Z,101848.98
2018-01-14T07:10:51.693Z,101855.90
2018-01-14T07:13:20.118Z,101859.05
2018-01-14T07:15:48.548Z,101856.99
2018-01-14T07:18:17.099Z,101864.81
2018-01-14T07:20:45.494Z,101865.89
2018-01-14T07:23:13.922Z,101862.77
2018-01-14T07:25:43.049Z,101868.11
2018-01-14T07:28:11.464Z,101866.89
2018-01-14T07:30:39.877Z,101874.34
2018-01-14T07:33:09.051Z,101882.67
2018-01-14T07:35:37.466Z,101888.21
2018-01-14T07:38:05.906Z,101887.17
2018-01-14T07:40:34.257Z,101874.69
2018-01-14T07:43:02.726Z,101876.95
2018-01-14T07:45:31.075Z,101874.20
2018-01-14T07:48:00.167Z,101869.97
2018-01-14T07:50:29.323Z,101874.42
2018-01-14T07:52:57.776Z,101876.39
2018-01-14T07:55:26.110Z,101881.94
2018-01-14T07:57:54.582Z,101875.68
2018-01-14T08:00:23.703Z,101872.44
2018-01-14T08:02:52.926Z,101873.19
2018-01-14T08:05:21.362Z,101878.26
2018-01-14T08:07:50.531Z,101873.91
2018-01-14T08:10:18.882Z,101878.31
2018-01-14T08:12:47.266Z,101877.23
2018-01-14T08:15:15.614Z,101888.16
2018-01-14T08:17:43.969Z,101888.28
2018-01-14T08:20:13.140Z,101885.00
2018-01-14T08:22:41.477Z,101893.04
2018-01-14T08:25:09.837Z,101899.80
2018-01-14T08:27:39.012Z,101902.78
2018-01-14T08:30:08.138Z,101905.59
2018-01-14T08:32:36.495Z,101904.19
2018-01-14T08:35:05.737Z,101902.20
2018-01-14T08:37:34.154Z,101901.53
2018-01-14T08:40:02.547Z,101900.78
2018-01-14T08:42:31.650Z,101910.50
2018-01-14T08:45:00.784Z,101915.77
2018-01-14T08:47:29.400Z,101912.69
2018-01-14T08:49:57.829Z,101910.32
2018-01-14T08:52:26.239Z,101914.43
2018-01-14T08:54:54.641Z,101905.48
2018-01-14T08:57:22.997Z,101916.28
2018-01-14T08:59:51.424Z,101908.91
2018-01-14T09:02:20.551Z,101909.03
2018-01-14T09:04:48.884Z,101896.88
2018-01-14T09:07:17.279Z,101899.66
2018-01-14T09:09:45.798Z,101897.80
2018-01-14T09:12:14.137Z,101890.59
2018-01-14T09:14:43.306Z,101892.86
2018-01-14T09:17:11.667Z,101898.63
2018-01-14T09:19:40.129Z,101902.45
2018-01-14T09:22:08.483Z,101906.99
2018-01-14T09:24:36.953Z,101902.70
2018-01-14T09:27:05.372Z,101900.33
2018-01-14T09:29:33.779Z,101895.83
2018-01-14T09:32:02.186Z,101904.98
2018-01-14T09:34:30.568Z,101892.64
2018-01-14T09:36:59.752Z,101891.76
2018-01-14T09:39:28.926Z,101890.06
2018-01-14T09:41:57.538Z,101895.15
2018-01-14T09:44:26.734Z,101899.92
2018-01-14T09:46:55.852Z,101896.80
2018-01-14T09:49:24.490Z,101899.64
2018-01-14T09:51:52.937Z,101892.95
2018-01-14T09:54:21.372Z,101889.22
2018-01-14T09:56:50.562Z,101901.03
2018-01-14T09:59:19.689Z,101892.36
2018-01-14T10:01:48.034Z,101892.72
2018-01-14T10:04:16.358Z,101891.02
2018-01-14T10:06:44.703Z,101891.30
2018-01-14T10:09:13.839Z,101888.38
2018-01-14T10:11:42.254Z,101887.08
2018-01-14T10:14:10.657Z,101887.84
2018-01-14T10:16:39.763Z,101875.84
2018-01-14T10:19:08.991Z,101875.84
2018-01-14T10:21:37.350Z,101881.90
2018-01-14T10:24:05.689Z,101882.64
2018-01-14T10:26:34.098Z,101886.11
2018-01-14T10:29:02.463Z,101886.05
2018-01-14T10:31:31.565Z,101877.00
2018-01-14T10:33:59.987Z,101884.20
2018-01-14T10:36:28.419Z,101878.50
2018-01-14T10:38:57.668Z,101871.73
2018-01-14T10:41:26.063Z,101864.78
2018-01-14T10:43:54.621Z,101866.38
2018-01-14T10:46:22.976Z,101864.07
2018-01-14T10:48:51.374Z,101859.22
2018-01-14T10:51:19.871Z,101854.97
2018-01-14T10:53:48.288Z,101855.52
2018-01-14T10:56:17.536Z,101849.17
2018-01-14T10:58:45.966Z,101852.13
2018-01-14T11:01:21.408Z,101853.42
2018-01-14T11:03:49.789Z,101849.30
2018-01-14T11:06:18.112Z,101856.83
2018-01-14T11:08:46.543Z,101846.41
2018-01-14T11:11:15.719Z,101843.03
2018-01-14T11:13:44.140Z,101833.69
2018-01-14T11:16:13.419Z,101831.61
2018-01-14T11:18:42.595Z,101837.20
2018-01-14T11:21:11.052Z,101837.55
2018-01-14T11:23:39.432Z,101833.16
2018-01-14T11:26:07.824Z,101831.45
2018-01-14T11:28:39.661Z,101835.47
2018-01-14T11:31:08.051Z,101836.22
2018-01-14T11:33:36.519Z,101836.64
2018-01-14T11:36:05.007Z,101837.44
2018-01-14T11:38:33.369Z,101831.91
2018-01-14T11:41:01.758Z,101829.65
2018-01-14T11:43:30.102Z,101820.41
2018-01-14T11:45:59.227Z,101811.87
2018-01-14T11:48:27.553Z,101817.42
2018-01-14T11:50:55.902Z,101816.67
2018-01-14T11:53:24.382Z,101808.11
2018-01-14T11:55:52.834Z,101814.17
2018-01-14T11:58:21.226Z,101805.84
2018-01-14T12:00:49.808Z,101816.71
2018-01-14T12:03:18.208Z,101804.19
2018-01-14T12:05:46.563Z,101805.41
2018-01-14T12:08:14.970Z,101800.17
2018-01-14T12:10:43.312Z,101794.62
2018-01-14T12:13:11.770Z,101786.86
2018-01-14T12:15:40.141Z,101781.12
2018-01-14T12:18:08.566Z,101786.74
2018-01-14T12:20:36.909Z,101782.17
2018-01-14T12:23:06.084Z,101784.27
2018-01-14T12:25:35.203Z,101779.83
2018-01-14T12:28:03.581Z,101787.11
2018-01-14T12:30:31.954Z,101793.08
2018-01-14T12:33:09.407Z,101787.48
2018-01-14T12:35:38.563Z,101786.58
2018-01-14T12:38:06.954Z,101786.73
2018-01-14T12:40:35.311Z,101782.47
2018-01-14T12:43:03.717Z,101778.02
2018-01-14T12:45:32.843Z,101773.13
2018-01-14T12:48:01.299Z,101772.44
2018-01-14T12:50:29.739Z,101775.59
2018-01-14T12:52:58.166Z,101769.34
2018-01-14T12:55:26.528Z,101760.98
2018-01-14T12:57:55.001Z,101766.33
2018-01-14T13:00:23.380Z,101761.63
2018-01-14T13:02:51.723Z,101760.76
2018-01-14T13:05:20.896Z,101760.34
2018-01-14T13:07:49.241Z,101763.25
2018-01-14T13:10:17.590Z,101752.77
2018-01-14T13:12:45.911Z,101754.48
2018-01-14T13:15:14.342Z,101752.63
2018-01-14T13:17:43.439Z,101753.16
2018-01-14T13:20:11.895Z,101749.23
2018-01-14T13:22:41.026Z,101755.70
2018-01-14T13:25:09.489Z,101751.88
2018-01-14T13:27:38.204Z,101747.75
2018-01-14T13:30:06.626Z,101743.42
2018-01-14T13:32:34.967Z,101743.03
2018-01-14T13:35:03.388Z,101751.38
2018-01-14T13:37:32.626Z,101757.52
2018-01-14T13:40:01.134Z,101756.34
2018-01-14T13:42:29.549Z,101753.75
2018-01-14T13:44:57.883Z,101756.80
2018-01-14T13:47:26.366Z,101746.85
2018-01-14T13:49:54.794Z,101744.20
2018-01-14T13:52:23.211Z,101741.08
2018-01-14T13:54:51.553Z,101743.28
2018-01-14T13:57:20.735Z,101740.18
2018-01-14T13:59:49.075Z,101736.22
2018-01-14T14:02:17.459Z,101733.65
2018-01-14T14:04:45.947Z,101735.99
2018-01-14T14:07:14.367Z,101732.78
2018-01-14T14:09:43.495Z,101734.34
2018-01-14T14:12:11.990Z,101737.16
2018-01-14T14:14:40.320Z,101739.88
2018-01-14T14:17:09.456Z,101744.52
2018-01-14T14:19:37.880Z,101744.42
2018-01-14T14:22:06.243Z,101742.05
2018-01-14T14:24:34.567Z,101740.69
2018-01-14T14:27:02.896Z,101752.31
2018-01-14T14:29:31.296Z,101750.14
2018-01-14T14:31:59.726Z,101749.53
2018-01-14T14:34:28.166Z,101749.27
2018-01-14T14:36:57.291Z,101755.37
2018-01-14T14:39:25.637Z,101746.52
2018-01-14T14:41:54.794Z,101747.20
2018-01-14T14:44:23.123Z,101747.09
2018-01-14T14:46:52.298Z,101750.78
2018-01-14T14:49:21.407Z,101757.74
2018-01-14T14:51:50.558Z,101756.32
2018-01-14T14:54:18.991Z,101754.56
2018-01-14T14:56:47.390Z,101746.16
2018-01-14T14:59:15.810Z,101746.12
2018-01-14T15:01:44.210Z,101748.67
2018-01-14T15:04:13.359Z,101745.23
2018-01-14T15:06:41.778Z,101749.49
2018-01-14T15:09:10.905Z,101743.14
2018-01-14T15:11:39.307Z,101743.72
2018-01-14T15:14:07.686Z,101743.67
2018-01-14T15:16:36.019Z,101749.67
2018-01-14T15:19:04.344Z,101737.90
2018-01-14T15:21:32.736Z,101739.34
2018-01-14T15:24:01.055Z,101737.53
2018-01-14T15:26:30.144Z,101733.80
2018-01-14T15:28:58.512Z,101734.02
2018-01-14T15:31:26.896Z,101738.44
2018-01-14T15:33:55.999Z,101740.92
2018-01-14T15:36:25.102Z,101744.03
2018-01-14T15:38:54.208Z,101744.09
2018-01-14T15:41:23.358Z,101750.22
2018-01-14T15:43:51.730Z,101752.73
2018-01-14T15:46:20.820Z,101748.01
2018-01-14T15:48:49.154Z,101752.16
2018-01-14T15:51:17.569Z,101750.48
2018-01-14T15:53:45.975Z,101737.90
2018-01-14T15:56:14.308Z,101739.63
2018-01-14T15:58:42.667Z,101739.57
2018-01-14T16:01:11.838Z,101737.59
2018-01-14T16:03:41.047Z,101736.20
2018-01-14T16:06:10.220Z,101732.17
2018-01-14T16:08:38.561Z,101730.27
2018-01-14T16:11:06.903Z,101727.88
2018-01-14T16:13:36.004Z,101735.41
2018-01-14T16:16:04.351Z,101728.16
2018-01-14T16:18:33.557Z,101729.39
2018-01-14T16:21:02.730Z,101731.03
2018-01-14T16:23:31.174Z,101722.52
2018-01-14T16:25:59.627Z,101723.73
2018-01-14T16:28:28.799Z,101719.33
2018-01-14T16:30:57.127Z,101728.73
2018-01-14T16:33:25.489Z,101727.69
2018-01-14T16:35:54.591Z,101723.92
2018-01-14T16:38:22.985Z,101723.70
2018-01-14T16:40:51.426Z,101719.26
2018-01-14T16:43:20.594Z,101725.03
2018-01-14T16:45:49.036Z,101715.45
2018-01-14T16:48:17.388Z,101716.02
2018-01-14T16:50:46.529Z,101713.12
2018-01-14T16:53:14.917Z,101719.94
2018-01-14T16:55:43.313Z,101720.83
2018-01-14T16:58:11.742Z,101712.83
2018-01-14T17:00:40.079Z,101715.05
2018-01-14T17:03:08.486Z,101719.89
2018-01-14T17:05:36.867Z,101714.28
2018-01-14T17:08:06.038Z,101721.16
2018-01-14T17:10:35.305Z,101717.77
2018-01-14T17:13:04.407Z,101717.63
2018-01-14T17:15:32.803Z,101721.25
2018-01-14T17:18:01.206Z,101724.41
2018-01-14T17:20:29.639Z,101724.77
2018-01-14T17:22:58.058Z,101726.78
2018-01-14T17:25:27.226Z,101722.33
2018-01-14T17:27:55.650Z,101713.95
2018-01-14T17:30:24.049Z,101714.59
2018-01-14T17:32:52.384Z,101705.76
2018-01-14T17:35:20.752Z,101708.47
2018-01-14T17:37:49.092Z,101713.30
2018-01-14T17:40:17.491Z,101711.94
2018-01-14T17:42:45.939Z,101709.27
2018-01-14T17:45:14.304Z,101708.36
2018-01-14T17:47:42.642Z,101712.43
2018-01-14T17:50:11.146Z,101709.39
2018-01-14T17:52:40.304Z,101716.81
2018-01-14T17:55:08.717Z,101715.94
2018-01-14T17:57:37.931Z,101709.99
2018-01-14T18:00:06.579Z,101720.00
2018-01-14T18:02:35.000Z,101723.36
2018-01-14T18:05:03.590Z,101718.63
2018-01-14T18:07:31.929Z,101718.70
2018-01-14T18:10:01.626Z,101711.31
2018-01-14T18:12:29.979Z,101715.89
2018-01-14T18:14:58.347Z,101711.23
2018-01-14T18:17:27.558Z,101716.95
2018-01-14T18:19:55.986Z,101710.43
2018-01-14T18:22:25.242Z,101719.27
2018-01-14T18:24:53.588Z,101713.09
2018-01-14T18:27:21.999Z,101716.52
2018-01-14T18:29:50.400Z,101711.87
2018-01-14T18:32:18.949Z,101710.05
2018-01-14T18:34:47.275Z,101708.97
2018-01-14T18:37:16.408Z,101700.33
2018-01-14T18:39:44.749Z,101704.74
2018-01-14T18:42:13.088Z,101702.08
2018-01-14T18:44:41.463Z,101697.73
2018-01-14T18:47:09.882Z,101702.23
2018-01-14T18:49:39.127Z,101700.25
2018-01-14T18:52:07.566Z,101694.30
2018-01-14T18:54:36.739Z,101694.81
2018-01-14T18:57:09.391Z,101687.64
2018-01-14T18:59:38.635Z,101679.61
2018-01-14T19:02:07.824Z,101683.72
2018-01-14T19:04:36.961Z,101687.30
2018-01-14T19:07:05.347Z,101679.19
2018-01-14T19:09:33.693Z,101678.53
2018-01-14T19:12:02.860Z,101679.10
2018-01-14T19:14:31.207Z,101672.91
2018-01-14T19:16:59.710Z,101665.72
2018-01-14T19:19:28.218Z,101665.18
2018-01-14T19:21:56.675Z,101667.05
2018-01-14T19:24:25.087Z,101669.77
2018-01-14T19:26:53.456Z,101670.19
2018-01-14T19:29:22.600Z,101668.05
2018-01-14T19:31:50.932Z,101664.30
2018-01-14T19:34:20.098Z,101654.45
2018-01-14T19:36:49.244Z,101651.73
2018-01-14T19:39:17.589Z,101648.52
2018-01-14T19:41:45.985Z,101641.00
2018-01-14T19:44:15.097Z,101638.28
2018-01-14T19:46:43.486Z,101633.50
2018-01-14T19:49:12.641Z,101626.81
2018-01-14T19:51:44.362Z,101628.47
2018-01-14T19:54:12.784Z,101625.70
2018-01-14T19:56:41.903Z,101622.20
2018-01-14T19:59:10.317Z,101614.13
2018-01-14T20:01:38.665Z,101604.06
2018-01-14T20:04:07.067Z,101603.70
2018-01-14T20:06:35.453Z,101603.58
2018-01-14T20:09:03.882Z,101602.11
2018-01-14T20:11:32.345Z,101605.38
2018-01-14T20:14:01.033Z,101606.14
2018-01-14T20:16:30.275Z,101609.09
2018-01-14T20:18:58.701Z,101616.15
2018-01-14T20:21:27.130Z,101628.23
2018-01-14T20:23:55.483Z,101627.39
2018-01-14T20:26:24.672Z,101627.52
2018-01-14T20:28:53.799Z,101635.78
2018-01-14T20:31:22.175Z,101629.53
2018-01-14T20:33:50.521Z,101633.77
2018-01-14T20:36:18.859Z,101635.02
2018-01-14T20:38:47.252Z,101633.69
2018-01-14T20:41:15.694Z,101633.61
2018-01-14T20:43:44.101Z,101624.70
2018-01-14T20:46:12.522Z,101625.80
2018-01-14T20:48:41.741Z,101616.43
2018-01-14T20:51:10.101Z,101624.73
2018-01-14T20:53:39.209Z,101615.93
2018-01-14T20:56:08.444Z,101617.53
2018-01-14T20:58:36.803Z,101623.94
2018-01-14T21:01:05.168Z,101618.48
2018-01-14T21:03:33.567Z,101620.52
2018-01-14T21:06:01.979Z,101619.75
2018-01-14T21:08:30.376Z,101622.25
2018-01-14T21:10:59.563Z,101613.81
2018-01-14T21:13:27.904Z,101608.69
2018-01-14T21:15:56.276Z,101610.04
2018-01-14T21:18:24.696Z,101604.15
2018-01-14T21:20:53.102Z,101599.23
2018-01-14T21:23:21.452Z,101611.52
2018-01-14T21:25:50.119Z,101609.91
2018-01-14T21:28:18.542Z,101600.48
2018-01-14T21:30:47.722Z,101609.63
2018-01-14T21:33:16.888Z,101603.80
2018-01-14T21:35:45.399Z,101604.30
2018-01-14T21:38:13.747Z,101609.43
2018-01-14T21:40:42.167Z,101604.00
2018-01-14T21:43:11.330Z,101605.28
2018-01-14T21:45:39.762Z,101602.17
2018-01-14T21:48:08.197Z,101593.06
2018-01-14T21:50:36.597Z,101593.77
2018-01-14T21:53:05.003Z,101588.75
2018-01-14T21:55:33.404Z,101585.82
2018-01-14T21:58:01.782Z,101582.23
2018-01-14T22:00:30.382Z,101584.34
2018-01-14T22:02:58.790Z,101585.31
2018-01-14T22:05:27.955Z,101581.52
2018-01-14T22:07:56.541Z,101584.55
2018-01-14T22:10:24.989Z,101578.73
2018-01-14T22:12:53.326Z,101578.22
2018-01-14T22:15:21.870Z,101573.45
2018-01-14T22:17:50.273Z,101576.33
2018-01-14T22:20:18.704Z,101573.39
2018-01-14T22:22:47.257Z,101570.91
2018-01-14T22:25:16.360Z,101563.60
2018-01-14T22:27:45.467Z,101570.27
2018-01-14T22:30:13.992Z,101565.86
2018-01-14T22:32:42.336Z,101562.56
2018-01-14T22:35:10.732Z,101566.23
2018-01-14T22:37:39.162Z,101565.94
2018-01-14T22:40:08.256Z,101558.61
2018-01-14T22:42:36.603Z,101547.52
2018-01-14T22:45:04.997Z,101550.52
2018-01-14T22:47:33.344Z,101544.09
2018-01-14T22:50:01.699Z,101539.08
2018-01-14T22:52:30.118Z,101534.66
2018-01-14T22:54:58.547Z,101528.55
2018-01-14T22:57:26.972Z,101527.48
2018-01-14T22:59:55.382Z,101529.38
2018-01-14T23:02:23.735Z,101522.98
2018-01-14T23:04:52.164Z,101519.69
2018-01-14T23:07:20.563Z,101520.53
2018-01-14T23:09:48.899Z,101524.87
2018-01-14T23:12:17.318Z,101520.30
2018-01-14T23:14:51.128Z,101520.09
2018-01-14T23:17:19.734Z,101510.20
2018-01-14T23:19:48.095Z,101511.37
2018-01-14T23:22:16.486Z,101513.12
2018-01-14T23:24:44.922Z,101515.14
2018-01-14T23:27:13.320Z,101512.17
2018-01-14T23:29:41.722Z,101505.58
2018-01-14T23:32:10.086Z,101508.80
2018-01-14T23:34:38.558Z,101506.05
2018-01-14T23:37:06.950Z,101503.20
2018-01-14T23:39:35.397Z,101496.94
2018-01-14T23:42:03.738Z,101489.01
2018-01-14T23:44:32.066Z,101490.89
2018-01-14T23:47:00.484Z,101490.23
2018-01-14T23:49:28.897Z,101480.54
2018-01-14T23:51:57.995Z,101482.58
2018-01-14T23:54:27.107Z,101477.66
2018-01-14T23:56:55.512Z,101482.62
2018-01-14T23:59:23.848Z,101468.02
